sensor_id;sensor_type;location;lat;lon;timestamp;P1;durP1;ratioP1;P2;durP2;ratioP2
10991;SDS011;5549;47.028;15.514;2024-02-23T00:00:31;0.20;;;0.00;;
10991;SDS011;5549;47.028;15.514;2024-02-23T00:02:59;0.30;;;0.00;;
10991;SDS011;5549;47.028;15.514;2024-02-23T00:05:27;0.20;;;0.00;;
10991;SDS011;5549;47.028;15.514;2024-02-23T00:07:57;0.00;;;0.00;;
10991;SDS011;5549;47.028;15.514;2024-02-23T00:10:26;0.30;;;0.00;;
10991;SDS011;5549;47.028;15.514;2024-02-23T00:12:56;0.10;;;0.00;;
10991;SDS011;5549;47.028;15.514;2024-02-23T00:15:24;0.52;;;0.10;;
10991;SDS011;5549;47.028;15.514;2024-02-23T00:17:53;0.20;;;0.00;;
10991;SDS011;5549;47.028;15.514;2024-02-23T00:20:21;0.28;;;0.00;;
10991;SDS011;5549;47.028;15.514;2024-02-23T00:22:49;0.20;;;0.00;;
10991;SDS011;5549;47.028;15.514;2024-02-23T00:25:16;0.43;;;0.00;;
10991;SDS011;5549;47.028;15.514;2024-02-23T00:27:46;1.17;;;0.00;;
10991;SDS011;5549;47.028;15.514;2024-02-23T00:30:14;0.08;;;0.00;;
10991;SDS011;5549;47.028;15.514;2024-02-23T00:32:42;0.20;;;0.00;;
10991;SDS011;5549;47.028;15.514;2024-02-23T00:35:12;0.10;;;0.00;;
10991;SDS011;5549;47.028;15.514;2024-02-23T00:37:42;0.10;;;0.00;;
10991;SDS011;5549;47.028;15.514;2024-02-23T00:40:10;0.05;;;0.00;;
10991;SDS011;5549;47.028;15.514;2024-02-23T00:42:41;0.43;;;0.00;;
10991;SDS011;5549;47.028;15.514;2024-02-23T00:45:12;0.30;;;0.00;;
10991;SDS011;5549;47.028;15.514;2024-02-23T00:47:40;0.20;;;0.00;;
10991;SDS011;5549;47.028;15.514;2024-02-23T00:50:09;0.17;;;0.00;;
10991;SDS011;5549;47.028;15.514;2024-02-23T00:52:37;0.00;;;0.00;;
10991;SDS011;5549;47.028;15.514;2024-02-23T00:55:05;0.32;;;0.00;;
10991;SDS011;5549;47.028;15.514;2024-02-23T00:57:33;0.10;;;0.00;;
10991;SDS011;5549;47.028;15.514;2024-02-23T01:00:04;0.50;;;0.00;;
10991;SDS011;5549;47.028;15.514;2024-02-23T01:02:36;0.40;;;0.00;;
10991;SDS011;5549;47.028;15.514;2024-02-23T01:05:07;0.30;;;0.00;;
10991;SDS011;5549;47.028;15.514;2024-02-23T01:07:36;0.30;;;0.00;;
10991;SDS011;5549;47.028;15.514;2024-02-23T01:10:06;0.10;;;0.00;;
10991;SDS011;5549;47.028;15.514;2024-02-23T01:12:35;0.57;;;0.03;;
10991;SDS011;5549;47.028;15.514;2024-02-23T01:15:05;0.13;;;0.00;;
10991;SDS011;5549;47.028;15.514;2024-02-23T01:17:36;0.10;;;0.00;;
10991;SDS011;5549;47.028;15.514;2024-02-23T01:20:05;0.05;;;0.00;;
10991;SDS011;5549;47.028;15.514;2024-02-23T01:22:35;0.00;;;0.00;;
10991;SDS011;5549;47.028;15.514;2024-02-23T01:25:04;0.15;;;0.00;;
10991;SDS011;5549;47.028;15.514;2024-02-23T01:27:35;0.10;;;0.00;;
10991;SDS011;5549;47.028;15.514;2024-02-23T01:30:03;0.20;;;0.00;;
10991;SDS011;5549;47.028;15.514;2024-02-23T01:32:37;0.25;;;0.00;;
10991;SDS011;5549;47.028;15.514;2024-02-23T01:35:05;0.20;;;0.00;;
10991;SDS011;5549;47.028;15.514;2024-02-23T01:37:36;0.52;;;0.00;;
10991;SDS011;5549;47.028;15.514;2024-02-23T01:40:04;0.40;;;0.00;;
10991;SDS011;5549;47.028;15.514;2024-02-23T01:42:33;0.10;;;0.00;;
10991;SDS011;5549;47.028;15.514;2024-02-23T01:45:01;0.10;;;0.00;;
10991;SDS011;5549;47.028;15.514;2024-02-23T01:47:31;0.20;;;0.00;;
10991;SDS011;5549;47.028;15.514;2024-02-23T01:50:02;0.13;;;0.00;;
10991;SDS011;5549;47.028;15.514;2024-02-23T01:52:32;0.13;;;0.00;;
10991;SDS011;5549;47.028;15.514;2024-02-23T01:55:02;0.10;;;0.00;;
10991;SDS011;5549;47.028;15.514;2024-02-23T01:57:33;0.45;;;0.00;;
10991;SDS011;5549;47.028;15.514;2024-02-23T02:00:03;0.08;;;0.00;;
10991;SDS011;5549;47.028;15.514;2024-02-23T02:02:33;0.00;;;0.00;;
10991;SDS011;5549;47.028;15.514;2024-02-23T02:05:02;0.10;;;0.00;;
10991;SDS011;5549;47.028;15.514;2024-02-23T02:07:32;0.20;;;0.00;;
10991;SDS011;5549;47.028;15.514;2024-02-23T02:10:00;0.00;;;0.00;;
10991;SDS011;5549;47.028;15.514;2024-02-23T02:12:29;0.20;;;0.00;;
10991;SDS011;5549;47.028;15.514;2024-02-23T02:14:57;0.28;;;0.00;;
10991;SDS011;5549;47.028;15.514;2024-02-23T02:17:29;0.10;;;0.00;;
10991;SDS011;5549;47.028;15.514;2024-02-23T02:19:56;0.03;;;0.00;;
10991;SDS011;5549;47.028;15.514;2024-02-23T02:22:33;0.10;;;0.00;;
10991;SDS011;5549;47.028;15.514;2024-02-23T02:25:01;0.20;;;0.00;;
10991;SDS011;5549;47.028;15.514;2024-02-23T02:27:31;0.00;;;0.00;;
10991;SDS011;5549;47.028;15.514;2024-02-23T02:29:59;0.40;;;0.05;;
10991;SDS011;5549;47.028;15.514;2024-02-23T02:32:28;0.73;;;0.00;;
10991;SDS011;5549;47.028;15.514;2024-02-23T02:34:57;0.05;;;0.00;;
10991;SDS011;5549;47.028;15.514;2024-02-23T02:37:27;0.47;;;0.00;;
10991;SDS011;5549;47.028;15.514;2024-02-23T02:39:56;0.15;;;0.00;;
10991;SDS011;5549;47.028;15.514;2024-02-23T02:42:24;0.00;;;0.00;;
10991;SDS011;5549;47.028;15.514;2024-02-23T02:44:54;0.20;;;0.00;;
10991;SDS011;5549;47.028;15.514;2024-02-23T02:47:24;0.47;;;0.00;;
10991;SDS011;5549;47.028;15.514;2024-02-23T02:49:51;0.20;;;0.00;;
10991;SDS011;5549;47.028;15.514;2024-02-23T02:52:21;0.00;;;0.00;;
10991;SDS011;5549;47.028;15.514;2024-02-23T02:54:49;0.17;;;0.00;;
10991;SDS011;5549;47.028;15.514;2024-02-23T02:57:20;0.20;;;0.00;;
10991;SDS011;5549;47.028;15.514;2024-02-23T02:59:50;0.00;;;0.00;;
10991;SDS011;5549;47.028;15.514;2024-02-23T03:02:17;0.20;;;0.00;;
10991;SDS011;5549;47.028;15.514;2024-02-23T03:04:48;0.20;;;0.00;;
10991;SDS011;5549;47.028;15.514;2024-02-23T03:07:16;0.20;;;0.00;;
10991;SDS011;5549;47.028;15.514;2024-02-23T03:09:44;0.10;;;0.00;;
10991;SDS011;5549;47.028;15.514;2024-02-23T03:12:14;0.00;;;0.00;;
10991;SDS011;5549;47.028;15.514;2024-02-23T03:14:46;0.00;;;0.00;;
10991;SDS011;5549;47.028;15.514;2024-02-23T03:17:21;0.20;;;0.00;;
10991;SDS011;5549;47.028;15.514;2024-02-23T03:19:49;0.00;;;0.00;;
10991;SDS011;5549;47.028;15.514;2024-02-23T03:22:17;0.00;;;0.00;;
10991;SDS011;5549;47.028;15.514;2024-02-23T03:24:47;0.80;;;0.00;;
10991;SDS011;5549;47.028;15.514;2024-02-23T03:27:17;0.20;;;0.00;;
10991;SDS011;5549;47.028;15.514;2024-02-23T03:29:49;0.30;;;0.00;;
10991;SDS011;5549;47.028;15.514;2024-02-23T03:32:19;0.10;;;0.00;;
10991;SDS011;5549;47.028;15.514;2024-02-23T03:34:49;0.20;;;0.00;;
10991;SDS011;5549;47.028;15.514;2024-02-23T03:37:17;0.00;;;0.00;;
10991;SDS011;5549;47.028;15.514;2024-02-23T03:39:44;2.13;;;0.10;;
10991;SDS011;5549;47.028;15.514;2024-02-23T03:42:14;0.10;;;0.00;;
10991;SDS011;5549;47.028;15.514;2024-02-23T03:44:45;0.00;;;0.00;;
10991;SDS011;5549;47.028;15.514;2024-02-23T03:47:14;0.00;;;0.00;;
10991;SDS011;5549;47.028;15.514;2024-02-23T03:49:42;0.20;;;0.00;;
10991;SDS011;5549;47.028;15.514;2024-02-23T03:52:10;0.00;;;0.00;;
10991;SDS011;5549;47.028;15.514;2024-02-23T03:54:38;0.00;;;0.00;;
10991;SDS011;5549;47.028;15.514;2024-02-23T03:57:06;0.10;;;0.00;;
10991;SDS011;5549;47.028;15.514;2024-02-23T03:59:35;0.20;;;0.00;;
10991;SDS011;5549;47.028;15.514;2024-02-23T04:02:04;0.10;;;0.00;;
10991;SDS011;5549;47.028;15.514;2024-02-23T04:04:34;0.57;;;0.00;;
10991;SDS011;5549;47.028;15.514;2024-02-23T04:07:04;0.00;;;0.00;;
10991;SDS011;5549;47.028;15.514;2024-02-23T04:09:32;0.25;;;0.00;;
10991;SDS011;5549;47.028;15.514;2024-02-23T04:12:03;0.20;;;0.00;;
10991;SDS011;5549;47.028;15.514;2024-02-23T04:14:36;0.28;;;0.00;;
10991;SDS011;5549;47.028;15.514;2024-02-23T04:17:19;0.20;;;0.00;;
10991;SDS011;5549;47.028;15.514;2024-02-23T04:19:50;0.95;;;0.10;;
10991;SDS011;5549;47.028;15.514;2024-02-23T04:22:21;0.15;;;0.00;;
10991;SDS011;5549;47.028;15.514;2024-02-23T04:24:56;0.10;;;0.00;;
10991;SDS011;5549;47.028;15.514;2024-02-23T04:27:25;0.00;;;0.00;;
10991;SDS011;5549;47.028;15.514;2024-02-23T04:29:55;0.17;;;0.00;;
10991;SDS011;5549;47.028;15.514;2024-02-23T04:32:25;0.32;;;0.00;;
10991;SDS011;5549;47.028;15.514;2024-02-23T04:34:55;0.20;;;0.00;;
10991;SDS011;5549;47.028;15.514;2024-02-23T04:37:24;0.00;;;0.00;;
10991;SDS011;5549;47.028;15.514;2024-02-23T04:39:51;0.80;;;0.00;;
10991;SDS011;5549;47.028;15.514;2024-02-23T04:42:19;0.30;;;0.03;;
10991;SDS011;5549;47.028;15.514;2024-02-23T04:44:50;0.22;;;0.00;;
10991;SDS011;5549;47.028;15.514;2024-02-23T04:47:20;0.10;;;0.00;;
10991;SDS011;5549;47.028;15.514;2024-02-23T04:49:48;0.08;;;0.00;;
10991;SDS011;5549;47.028;15.514;2024-02-23T04:52:19;0.20;;;0.00;;
10991;SDS011;5549;47.028;15.514;2024-02-23T04:54:49;0.08;;;0.00;;
10991;SDS011;5549;47.028;15.514;2024-02-23T04:57:17;0.17;;;0.00;;
10991;SDS011;5549;47.028;15.514;2024-02-23T04:59:45;0.30;;;0.00;;
10991;SDS011;5549;47.028;15.514;2024-02-23T05:02:17;0.00;;;0.00;;
10991;SDS011;5549;47.028;15.514;2024-02-23T05:04:44;0.00;;;0.00;;
10991;SDS011;5549;47.028;15.514;2024-02-23T05:07:15;0.00;;;0.00;;
10991;SDS011;5549;47.028;15.514;2024-02-23T05:09:44;1.00;;;0.00;;
10991;SDS011;5549;47.028;15.514;2024-02-23T05:12:13;0.13;;;0.00;;
10991;SDS011;5549;47.028;15.514;2024-02-23T05:14:40;0.98;;;0.00;;
10991;SDS011;5549;47.028;15.514;2024-02-23T05:17:08;0.35;;;0.00;;
10991;SDS011;5549;47.028;15.514;2024-02-23T05:19:38;0.08;;;0.00;;
10991;SDS011;5549;47.028;15.514;2024-02-23T05:22:08;0.00;;;0.00;;
10991;SDS011;5549;47.028;15.514;2024-02-23T05:24:38;0.28;;;0.00;;
10991;SDS011;5549;47.028;15.514;2024-02-23T05:27:07;0.00;;;0.00;;
10991;SDS011;5549;47.028;15.514;2024-02-23T05:29:36;0.47;;;0.00;;
10991;SDS011;5549;47.028;15.514;2024-02-23T05:32:07;0.15;;;0.00;;
10991;SDS011;5549;47.028;15.514;2024-02-23T05:34:37;0.10;;;0.00;;
10991;SDS011;5549;47.028;15.514;2024-02-23T05:37:07;0.10;;;0.00;;
10991;SDS011;5549;47.028;15.514;2024-02-23T05:39:35;0.82;;;0.00;;
10991;SDS011;5549;47.028;15.514;2024-02-23T05:42:07;0.00;;;0.00;;
10991;SDS011;5549;47.028;15.514;2024-02-23T05:44:37;0.60;;;0.00;;
10991;SDS011;5549;47.028;15.514;2024-02-23T05:47:05;0.20;;;0.00;;
10991;SDS011;5549;47.028;15.514;2024-02-23T05:49:32;0.30;;;0.00;;
10991;SDS011;5549;47.028;15.514;2024-02-23T05:52:00;2.08;;;0.00;;
10991;SDS011;5549;47.028;15.514;2024-02-23T05:54:30;0.20;;;0.00;;
10991;SDS011;5549;47.028;15.514;2024-02-23T05:56:58;0.40;;;0.00;;
10991;SDS011;5549;47.028;15.514;2024-02-23T05:59:27;0.45;;;0.00;;
10991;SDS011;5549;47.028;15.514;2024-02-23T06:01:58;0.00;;;0.00;;
10991;SDS011;5549;47.028;15.514;2024-02-23T06:04:26;0.30;;;0.00;;
10991;SDS011;5549;47.028;15.514;2024-02-23T06:06:54;0.20;;;0.00;;
10991;SDS011;5549;47.028;15.514;2024-02-23T06:09:27;0.17;;;0.00;;
10991;SDS011;5549;47.028;15.514;2024-02-23T06:11:55;0.10;;;0.00;;
10991;SDS011;5549;47.028;15.514;2024-02-23T06:14:23;0.50;;;0.00;;
10991;SDS011;5549;47.028;15.514;2024-02-23T06:16:52;0.10;;;0.00;;
10991;SDS011;5549;47.028;15.514;2024-02-23T06:19:19;0.35;;;0.00;;
10991;SDS011;5549;47.028;15.514;2024-02-23T06:21:47;0.70;;;0.00;;
10991;SDS011;5549;47.028;15.514;2024-02-23T06:24:17;0.38;;;0.00;;
10991;SDS011;5549;47.028;15.514;2024-02-23T06:26:47;0.55;;;0.00;;
10991;SDS011;5549;47.028;15.514;2024-02-23T06:29:17;0.20;;;0.00;;
10991;SDS011;5549;47.028;15.514;2024-02-23T06:31:45;0.50;;;0.00;;
10991;SDS011;5549;47.028;15.514;2024-02-23T06:34:15;0.70;;;0.00;;
10991;SDS011;5549;47.028;15.514;2024-02-23T06:36:43;0.60;;;0.00;;
10991;SDS011;5549;47.028;15.514;2024-02-23T06:39:11;0.30;;;0.00;;
10991;SDS011;5549;47.028;15.514;2024-02-23T06:41:38;0.40;;;0.00;;
10991;SDS011;5549;47.028;15.514;2024-02-23T06:44:06;0.20;;;0.00;;
10991;SDS011;5549;47.028;15.514;2024-02-23T06:46:36;0.22;;;0.00;;
10991;SDS011;5549;47.028;15.514;2024-02-23T06:49:06;0.20;;;0.00;;
10991;SDS011;5549;47.028;15.514;2024-02-23T06:51:37;0.40;;;0.00;;
10991;SDS011;5549;47.028;15.514;2024-02-23T06:54:08;0.10;;;0.00;;
10991;SDS011;5549;47.028;15.514;2024-02-23T06:56:38;0.20;;;0.00;;
10991;SDS011;5549;47.028;15.514;2024-02-23T06:59:05;0.13;;;0.00;;
10991;SDS011;5549;47.028;15.514;2024-02-23T07:01:35;0.77;;;0.00;;
10991;SDS011;5549;47.028;15.514;2024-02-23T07:04:04;0.00;;;0.00;;
10991;SDS011;5549;47.028;15.514;2024-02-23T07:06:35;0.30;;;0.00;;
10991;SDS011;5549;47.028;15.514;2024-02-23T07:09:06;0.10;;;0.00;;
10991;SDS011;5549;47.028;15.514;2024-02-23T07:11:34;0.57;;;0.05;;
10991;SDS011;5549;47.028;15.514;2024-02-23T07:14:02;0.20;;;0.00;;
10991;SDS011;5549;47.028;15.514;2024-02-23T07:16:33;0.10;;;0.00;;
10991;SDS011;5549;47.028;15.514;2024-02-23T07:19:03;0.30;;;0.00;;
10991;SDS011;5549;47.028;15.514;2024-02-23T07:21:34;0.32;;;0.00;;
10991;SDS011;5549;47.028;15.514;2024-02-23T07:24:01;0.45;;;0.00;;
10991;SDS011;5549;47.028;15.514;2024-02-23T07:26:31;2.22;;;0.00;;
10991;SDS011;5549;47.028;15.514;2024-02-23T07:29:00;0.32;;;0.00;;
10991;SDS011;5549;47.028;15.514;2024-02-23T07:31:30;0.32;;;0.00;;
10991;SDS011;5549;47.028;15.514;2024-02-23T07:33:58;0.10;;;0.00;;
10991;SDS011;5549;47.028;15.514;2024-02-23T07:36:27;0.20;;;0.00;;
10991;SDS011;5549;47.028;15.514;2024-02-23T07:38:55;0.43;;;0.00;;
10991;SDS011;5549;47.028;15.514;2024-02-23T07:41:23;0.40;;;0.00;;
10991;SDS011;5549;47.028;15.514;2024-02-23T07:43:54;0.68;;;0.00;;
10991;SDS011;5549;47.028;15.514;2024-02-23T07:46:21;0.60;;;0.00;;
10991;SDS011;5549;47.028;15.514;2024-02-23T07:48:53;0.60;;;0.00;;
10991;SDS011;5549;47.028;15.514;2024-02-23T07:51:21;0.30;;;0.00;;
10991;SDS011;5549;47.028;15.514;2024-02-23T07:53:48;0.50;;;0.00;;
10991;SDS011;5549;47.028;15.514;2024-02-23T07:56:18;0.57;;;0.10;;
10991;SDS011;5549;47.028;15.514;2024-02-23T07:58:46;0.30;;;0.00;;
10991;SDS011;5549;47.028;15.514;2024-02-23T08:01:17;0.47;;;0.00;;
10991;SDS011;5549;47.028;15.514;2024-02-23T08:03:47;1.30;;;0.00;;
10991;SDS011;5549;47.028;15.514;2024-02-23T08:06:15;0.82;;;0.10;;
10991;SDS011;5549;47.028;15.514;2024-02-23T08:08:42;1.33;;;0.00;;
10991;SDS011;5549;47.028;15.514;2024-02-23T08:11:12;0.70;;;0.00;;
10991;SDS011;5549;47.028;15.514;2024-02-23T08:13:40;0.70;;;0.00;;
10991;SDS011;5549;47.028;15.514;2024-02-23T08:16:07;0.20;;;0.00;;
10991;SDS011;5549;47.028;15.514;2024-02-23T08:18:37;1.63;;;0.00;;
10991;SDS011;5549;47.028;15.514;2024-02-23T08:21:06;0.47;;;0.00;;
10991;SDS011;5549;47.028;15.514;2024-02-23T08:23:35;0.60;;;0.00;;
10991;SDS011;5549;47.028;15.514;2024-02-23T08:26:05;0.30;;;0.00;;
10991;SDS011;5549;47.028;15.514;2024-02-23T08:28:35;0.20;;;0.00;;
10991;SDS011;5549;47.028;15.514;2024-02-23T08:31:05;0.90;;;0.00;;
10991;SDS011;5549;47.028;15.514;2024-02-23T08:33:33;0.57;;;0.00;;
10991;SDS011;5549;47.028;15.514;2024-02-23T08:36:04;0.40;;;0.00;;
10991;SDS011;5549;47.028;15.514;2024-02-23T08:38:33;0.20;;;0.00;;
10991;SDS011;5549;47.028;15.514;2024-02-23T08:41:01;0.43;;;0.00;;
10991;SDS011;5549;47.028;15.514;2024-02-23T08:43:29;0.40;;;0.00;;
10991;SDS011;5549;47.028;15.514;2024-02-23T08:45:59;0.50;;;0.00;;
10991;SDS011;5549;47.028;15.514;2024-02-23T08:48:26;1.23;;;0.00;;
10991;SDS011;5549;47.028;15.514;2024-02-23T08:50:56;0.57;;;0.00;;
10991;SDS011;5549;47.028;15.514;2024-02-23T08:53:25;0.70;;;0.10;;
10991;SDS011;5549;47.028;15.514;2024-02-23T08:55:53;5.13;;;0.40;;
10991;SDS011;5549;47.028;15.514;2024-02-23T08:58:20;0.63;;;0.10;;
10991;SDS011;5549;47.028;15.514;2024-02-23T09:00:48;0.40;;;0.00;;
10991;SDS011;5549;47.028;15.514;2024-02-23T09:03:16;0.52;;;0.00;;
10991;SDS011;5549;47.028;15.514;2024-02-23T09:05:46;0.98;;;0.10;;
10991;SDS011;5549;47.028;15.514;2024-02-23T09:08:16;1.02;;;0.03;;
10991;SDS011;5549;47.028;15.514;2024-02-23T09:10:47;0.90;;;0.20;;
10991;SDS011;5549;47.028;15.514;2024-02-23T09:13:14;0.70;;;0.05;;
10991;SDS011;5549;47.028;15.514;2024-02-23T09:15:44;1.70;;;0.10;;
10991;SDS011;5549;47.028;15.514;2024-02-23T09:18:15;1.15;;;0.10;;
10991;SDS011;5549;47.028;15.514;2024-02-23T09:20:46;0.80;;;0.10;;
10991;SDS011;5549;47.028;15.514;2024-02-23T09:23:13;0.95;;;0.00;;
10991;SDS011;5549;47.028;15.514;2024-02-23T09:25:41;0.80;;;0.10;;
10991;SDS011;5549;47.028;15.514;2024-02-23T09:28:10;0.88;;;0.10;;
10991;SDS011;5549;47.028;15.514;2024-02-23T09:30:40;0.55;;;0.00;;
10991;SDS011;5549;47.028;15.514;2024-02-23T09:33:07;0.70;;;0.10;;
10991;SDS011;5549;47.028;15.514;2024-02-23T09:35:35;1.20;;;0.15;;
10991;SDS011;5549;47.028;15.514;2024-02-23T09:38:02;1.13;;;0.20;;
10991;SDS011;5549;47.028;15.514;2024-02-23T09:40:30;2.17;;;0.10;;
10991;SDS011;5549;47.028;15.514;2024-02-23T09:42:58;0.50;;;0.10;;
10991;SDS011;5549;47.028;15.514;2024-02-23T09:45:27;0.73;;;0.20;;
10991;SDS011;5549;47.028;15.514;2024-02-23T09:47:55;0.55;;;0.08;;
10991;SDS011;5549;47.028;15.514;2024-02-23T09:50:24;1.00;;;0.00;;
10991;SDS011;5549;47.028;15.514;2024-02-23T09:52:55;0.63;;;0.10;;
10991;SDS011;5549;47.028;15.514;2024-02-23T09:55:25;0.50;;;0.05;;
10991;SDS011;5549;47.028;15.514;2024-02-23T09:57:55;0.80;;;0.10;;
10991;SDS011;5549;47.028;15.514;2024-02-23T10:00:29;1.00;;;0.13;;
10991;SDS011;5549;47.028;15.514;2024-02-23T10:02:57;2.95;;;0.60;;
10991;SDS011;5549;47.028;15.514;2024-02-23T10:05:29;1.83;;;0.20;;
10991;SDS011;5549;47.028;15.514;2024-02-23T10:07:58;1.02;;;0.32;;
10991;SDS011;5549;47.028;15.514;2024-02-23T10:10:29;1.17;;;0.10;;
10991;SDS011;5549;47.028;15.514;2024-02-23T10:12:57;0.45;;;0.10;;
10991;SDS011;5549;47.028;15.514;2024-02-23T10:15:30;0.68;;;0.10;;
10991;SDS011;5549;47.028;15.514;2024-02-23T10:17:58;0.57;;;0.08;;
10991;SDS011;5549;47.028;15.514;2024-02-23T10:20:25;1.05;;;0.30;;
10991;SDS011;5549;47.028;15.514;2024-02-23T10:22:55;1.40;;;0.30;;
10991;SDS011;5549;47.028;15.514;2024-02-23T10:25:26;1.10;;;0.25;;
10991;SDS011;5549;47.028;15.514;2024-02-23T10:27:53;1.23;;;0.22;;
10991;SDS011;5549;47.028;15.514;2024-02-23T10:30:26;2.25;;;0.40;;
10991;SDS011;5549;47.028;15.514;2024-02-23T10:32:55;1.60;;;0.38;;
10991;SDS011;5549;47.028;15.514;2024-02-23T10:35:25;3.47;;;0.28;;
10991;SDS011;5549;47.028;15.514;2024-02-23T10:37:55;0.70;;;0.10;;
10991;SDS011;5549;47.028;15.514;2024-02-23T10:40:24;0.90;;;0.17;;
10991;SDS011;5549;47.028;15.514;2024-02-23T10:42:56;6.40;;;0.57;;
10991;SDS011;5549;47.028;15.514;2024-02-23T10:45:28;2.20;;;0.38;;
10991;SDS011;5549;47.028;15.514;2024-02-23T10:47:58;0.90;;;0.20;;
10991;SDS011;5549;47.028;15.514;2024-02-23T10:50:28;1.52;;;0.30;;
10991;SDS011;5549;47.028;15.514;2024-02-23T10:52:58;8.60;;;0.20;;
10991;SDS011;5549;47.028;15.514;2024-02-23T10:55:27;0.95;;;0.10;;
10991;SDS011;5549;47.028;15.514;2024-02-23T10:57:59;0.88;;;0.20;;
10991;SDS011;5549;47.028;15.514;2024-02-23T11:00:29;0.47;;;0.20;;
10991;SDS011;5549;47.028;15.514;2024-02-23T11:02:59;0.40;;;0.00;;
10991;SDS011;5549;47.028;15.514;2024-02-23T11:05:28;0.50;;;0.10;;
10991;SDS011;5549;47.028;15.514;2024-02-23T11:07:59;0.85;;;0.10;;
10991;SDS011;5549;47.028;15.514;2024-02-23T11:10:29;0.50;;;0.10;;
10991;SDS011;5549;47.028;15.514;2024-02-23T11:12:57;0.82;;;0.20;;
10991;SDS011;5549;47.028;15.514;2024-02-23T11:15:30;1.65;;;0.20;;
10991;SDS011;5549;47.028;15.514;2024-02-23T11:18:06;1.85;;;0.40;;
10991;SDS011;5549;47.028;15.514;2024-02-23T11:20:53;1.50;;;0.20;;
10991;SDS011;5549;47.028;15.514;2024-02-23T11:23:22;1.55;;;0.40;;
10991;SDS011;5549;47.028;15.514;2024-02-23T11:26:04;1.70;;;0.20;;
10991;SDS011;5549;47.028;15.514;2024-02-23T11:28:41;1.45;;;0.30;;
10991;SDS011;5549;47.028;15.514;2024-02-23T11:31:13;1.42;;;0.30;;
10991;SDS011;5549;47.028;15.514;2024-02-23T11:33:52;1.50;;;0.25;;
10991;SDS011;5549;47.028;15.514;2024-02-23T11:36:22;1.35;;;0.30;;
10991;SDS011;5549;47.028;15.514;2024-02-23T11:38:52;0.93;;;0.13;;
10991;SDS011;5549;47.028;15.514;2024-02-23T11:41:23;0.47;;;0.08;;
10991;SDS011;5549;47.028;15.514;2024-02-23T11:43:55;1.85;;;0.43;;
10991;SDS011;5549;47.028;15.514;2024-02-23T11:46:24;1.33;;;0.50;;
10991;SDS011;5549;47.028;15.514;2024-02-23T11:48:55;1.05;;;0.17;;
10991;SDS011;5549;47.028;15.514;2024-02-23T11:51:22;1.38;;;0.30;;
10991;SDS011;5549;47.028;15.514;2024-02-23T11:53:52;1.73;;;0.20;;
10991;SDS011;5549;47.028;15.514;2024-02-23T11:56:23;3.72;;;0.22;;
10991;SDS011;5549;47.028;15.514;2024-02-23T11:58:53;0.68;;;0.20;;
10991;SDS011;5549;47.028;15.514;2024-02-23T12:01:21;0.80;;;0.10;;
10991;SDS011;5549;47.028;15.514;2024-02-23T12:03:48;1.20;;;0.32;;
10991;SDS011;5549;47.028;15.514;2024-02-23T12:06:17;1.20;;;0.20;;
10991;SDS011;5549;47.028;15.514;2024-02-23T12:08:47;0.52;;;0.13;;
10991;SDS011;5549;47.028;15.514;2024-02-23T12:11:17;1.00;;;0.20;;
10991;SDS011;5549;47.028;15.514;2024-02-23T12:13:45;2.15;;;0.13;;
10991;SDS011;5549;47.028;15.514;2024-02-23T12:16:20;0.68;;;0.10;;
10991;SDS011;5549;47.028;15.514;2024-02-23T12:18:52;0.68;;;0.10;;
10991;SDS011;5549;47.028;15.514;2024-02-23T12:21:22;0.68;;;0.10;;
10991;SDS011;5549;47.028;15.514;2024-02-23T12:23:50;1.48;;;0.28;;
10991;SDS011;5549;47.028;15.514;2024-02-23T12:26:20;1.13;;;0.20;;
10991;SDS011;5549;47.028;15.514;2024-02-23T12:28:48;2.40;;;0.43;;
10991;SDS011;5549;47.028;15.514;2024-02-23T12:31:15;1.60;;;0.20;;
10991;SDS011;5549;47.028;15.514;2024-02-23T12:33:49;1.85;;;0.47;;
10991;SDS011;5549;47.028;15.514;2024-02-23T12:36:17;2.20;;;0.45;;
10991;SDS011;5549;47.028;15.514;2024-02-23T12:38:47;1.10;;;0.20;;
10991;SDS011;5549;47.028;15.514;2024-02-23T12:41:15;2.47;;;0.38;;
10991;SDS011;5549;47.028;15.514;2024-02-23T12:43:42;1.48;;;0.30;;
10991;SDS011;5549;47.028;15.514;2024-02-23T12:46:12;1.77;;;0.30;;
10991;SDS011;5549;47.028;15.514;2024-02-23T12:48:42;2.30;;;0.50;;
10991;SDS011;5549;47.028;15.514;2024-02-23T12:51:12;1.83;;;0.40;;
10991;SDS011;5549;47.028;15.514;2024-02-23T12:53:42;4.43;;;0.40;;
10991;SDS011;5549;47.028;15.514;2024-02-23T12:56:12;2.78;;;0.60;;
10991;SDS011;5549;47.028;15.514;2024-02-23T12:58:44;1.88;;;0.47;;
10991;SDS011;5549;47.028;15.514;2024-02-23T13:01:12;3.75;;;0.50;;
10991;SDS011;5549;47.028;15.514;2024-02-23T13:03:43;1.13;;;0.30;;
10991;SDS011;5549;47.028;15.514;2024-02-23T13:06:11;1.67;;;0.30;;
10991;SDS011;5549;47.028;15.514;2024-02-23T13:08:42;0.85;;;0.20;;
10991;SDS011;5549;47.028;15.514;2024-02-23T13:11:09;1.13;;;0.25;;
10991;SDS011;5549;47.028;15.514;2024-02-23T13:13:38;2.05;;;0.50;;
10991;SDS011;5549;47.028;15.514;2024-02-23T13:16:08;0.98;;;0.25;;
10991;SDS011;5549;47.028;15.514;2024-02-23T13:18:38;1.48;;;0.30;;
10991;SDS011;5549;47.028;15.514;2024-02-23T13:21:05;2.55;;;0.60;;
10991;SDS011;5549;47.028;15.514;2024-02-23T13:23:33;2.45;;;0.60;;
10991;SDS011;5549;47.028;15.514;2024-02-23T13:26:03;2.45;;;0.55;;
10991;SDS011;5549;47.028;15.514;2024-02-23T13:28:33;1.35;;;0.30;;
10991;SDS011;5549;47.028;15.514;2024-02-23T13:31:00;2.28;;;0.38;;
10991;SDS011;5549;47.028;15.514;2024-02-23T13:33:28;1.88;;;0.52;;
10991;SDS011;5549;47.028;15.514;2024-02-23T13:35:57;2.67;;;0.65;;
10991;SDS011;5549;47.028;15.514;2024-02-23T13:38:25;2.00;;;0.40;;
10991;SDS011;5549;47.028;15.514;2024-02-23T13:40:52;0.93;;;0.15;;
10991;SDS011;5549;47.028;15.514;2024-02-23T13:43:22;1.90;;;0.57;;
10991;SDS011;5549;47.028;15.514;2024-02-23T13:45:51;2.58;;;0.60;;
10991;SDS011;5549;47.028;15.514;2024-02-23T13:48:22;2.38;;;0.50;;
10991;SDS011;5549;47.028;15.514;2024-02-23T13:50:50;2.38;;;0.50;;
10991;SDS011;5549;47.028;15.514;2024-02-23T13:53:18;1.13;;;0.35;;
10991;SDS011;5549;47.028;15.514;2024-02-23T13:55:48;1.42;;;0.38;;
10991;SDS011;5549;47.028;15.514;2024-02-23T13:58:16;2.42;;;0.52;;
10991;SDS011;5549;47.028;15.514;2024-02-23T14:00:46;1.90;;;0.20;;
10991;SDS011;5549;47.028;15.514;2024-02-23T14:03:18;1.23;;;0.30;;
10991;SDS011;5549;47.028;15.514;2024-02-23T14:05:49;2.10;;;0.43;;
10991;SDS011;5549;47.028;15.514;2024-02-23T14:08:17;1.02;;;0.30;;
10991;SDS011;5549;47.028;15.514;2024-02-23T14:10:44;1.48;;;0.55;;
10991;SDS011;5549;47.028;15.514;2024-02-23T14:13:12;3.25;;;0.65;;
10991;SDS011;5549;47.028;15.514;2024-02-23T14:15:40;1.17;;;0.30;;
10991;SDS011;5549;47.028;15.514;2024-02-23T14:18:07;0.70;;;0.20;;
10991;SDS011;5549;47.028;15.514;2024-02-23T14:20:36;1.13;;;0.32;;
10991;SDS011;5549;47.028;15.514;2024-02-23T14:23:05;1.60;;;0.50;;
10991;SDS011;5549;47.028;15.514;2024-02-23T14:25:35;1.23;;;0.47;;
10991;SDS011;5549;47.028;15.514;2024-02-23T14:28:02;1.02;;;0.43;;
10991;SDS011;5549;47.028;15.514;2024-02-23T14:30:30;1.90;;;0.52;;
10991;SDS011;5549;47.028;15.514;2024-02-23T14:32:58;0.63;;;0.13;;
10991;SDS011;5549;47.028;15.514;2024-02-23T14:35:25;1.90;;;0.50;;
10991;SDS011;5549;47.028;15.514;2024-02-23T14:37:54;2.35;;;0.88;;
10991;SDS011;5549;47.028;15.514;2024-02-23T14:40:22;1.70;;;0.57;;
10991;SDS011;5549;47.028;15.514;2024-02-23T14:42:52;1.42;;;0.50;;
10991;SDS011;5549;47.028;15.514;2024-02-23T14:45:21;1.52;;;0.55;;
10991;SDS011;5549;47.028;15.514;2024-02-23T14:47:49;1.83;;;0.50;;
10991;SDS011;5549;47.028;15.514;2024-02-23T14:50:17;1.52;;;0.22;;
10991;SDS011;5549;47.028;15.514;2024-02-23T14:52:44;1.30;;;0.50;;
10991;SDS011;5549;47.028;15.514;2024-02-23T14:55:14;1.33;;;0.40;;
10991;SDS011;5549;47.028;15.514;2024-02-23T14:57:44;1.83;;;0.60;;
10991;SDS011;5549;47.028;15.514;2024-02-23T15:00:12;1.48;;;0.22;;